Terminal Aerodrome Forecast
Issued by NWS Miami, FL

Home | Current Version | Previous Version | Text Only | Print | Product List | Glossary On
Versions: 1 2 3 4 5 6 7 8 9 10 11 12 13 14 15 16 17 18 19 20 21 22 23 24 25 26 27 28 29 30 31 32 33 34
000
FTUS42 KMFL 230542
TAFAPF
TAF
KAPF 230542Z 2306/2406 30005KT P6SM FEW025 SCT250
     FM230900 VRB06KT 3SM BR FEW025 SCT250
     FM231400 28011KT P6SM FEW025 SCT250
     FM240000 28005KT P6SM FEW025 SCT250=

USA.gov is the U.S. government's official web portal to all federal, state and local government web resources and services.